createdAt,value
2022-11-10T00:01:13.451Z,21.30
2022-11-10T00:06:52.927Z,17.35
2022-11-10T00:12:33.445Z,15.77
2022-11-10T00:18:12.724Z,16.35
2022-11-10T00:23:52.271Z,15.70
2022-11-10T00:29:32.047Z,17.13
2022-11-10T00:35:11.719Z,14.32
2022-11-10T00:40:51.182Z,22.15
2022-11-10T00:46:30.366Z,13.55
2022-11-10T00:52:09.922Z,18.73
2022-11-10T00:57:49.112Z,13.95
2022-11-10T01:03:28.464Z,21.25
2022-11-10T01:09:07.427Z,18.80
2022-11-10T01:14:47.911Z,13.00
2022-11-10T01:20:27.769Z,15.45
2022-11-10T01:26:07.638Z,12.73
2022-11-10T01:31:47.112Z,23.42
2022-11-10T01:37:26.246Z,14.35
2022-11-10T01:43:06.220Z,15.30
2022-11-10T01:48:49.466Z,3.78
2022-11-10T01:54:38.992Z,23.70
2022-11-10T02:00:20.082Z,8.57
2022-11-10T02:06:00.426Z,21.10
2022-11-10T02:11:41.960Z,12.52
2022-11-10T02:17:21.148Z,11.55
2022-11-10T02:23:11.792Z,14.93
2022-11-10T02:28:51.346Z,11.60
2022-11-10T02:34:30.931Z,3.97
2022-11-10T02:40:11.173Z,5.63
2022-11-10T02:45:50.408Z,4.43
2022-11-10T02:51:29.753Z,7.38
2022-11-10T02:57:08.883Z,4.80
2022-11-10T03:02:48.280Z,10.38
2022-11-10T03:08:27.818Z,9.02
2022-11-10T03:14:07.279Z,9.65
2022-11-10T03:19:46.879Z,9.60
2022-11-10T03:25:26.209Z,11.32
2022-11-10T03:31:08.507Z,22.08
2022-11-10T03:36:47.820Z,21.63
2022-11-10T03:42:26.930Z,17.38
2022-11-10T03:48:06.428Z,12.88
2022-11-10T03:53:45.883Z,10.27
2022-11-10T03:59:24.956Z,14.60
2022-11-10T04:05:24.630Z,7.03
2022-11-10T04:11:04.043Z,16.80
2022-11-10T04:16:43.377Z,7.25
2022-11-10T04:22:42.281Z,12.43
2022-11-10T04:28:21.285Z,9.88
2022-11-10T04:34:00.356Z,14.10
2022-11-10T04:39:39.673Z,12.10
2022-11-10T04:45:19.168Z,14.98
2022-11-10T04:51:06.892Z,13.63
2022-11-10T04:56:46.630Z,21.75
2022-11-10T05:02:25.900Z,9.13
2022-11-10T05:08:05.901Z,13.40
2022-11-10T05:13:45.895Z,8.98
2022-11-10T05:19:24.751Z,12.70
2022-11-10T05:25:04.830Z,11.57
2022-11-10T05:30:44.340Z,16.13
2022-11-10T05:36:23.642Z,10.35
2022-11-10T05:42:03.254Z,18.48
2022-11-10T05:47:42.480Z,14.23
2022-11-10T05:53:22.347Z,16.15
2022-11-10T05:59:01.483Z,11.07
2022-11-10T06:04:40.872Z,9.10
2022-11-10T06:10:20.067Z,16.55
2022-11-10T06:15:59.331Z,10.88
2022-11-10T06:21:38.475Z,22.60
2022-11-10T06:27:17.661Z,19.40
2022-11-10T06:32:56.861Z,18.63
2022-11-10T06:38:36.110Z,21.38
2022-11-10T06:44:15.148Z,22.08
2022-11-10T06:49:54.688Z,31.80
2022-11-10T06:55:34.337Z,27.60
2022-11-10T07:01:15.791Z,17.65
2022-11-10T07:06:58.442Z,16.10
2022-11-10T07:12:37.514Z,31.92
2022-11-10T07:18:16.712Z,25.48
2022-11-10T07:23:56.261Z,20.35
2022-11-10T07:29:35.383Z,15.00
2022-11-10T07:35:15.253Z,15.27
2022-11-10T07:40:55.386Z,19.38
2022-11-10T07:46:34.889Z,23.35
2022-11-10T07:52:13.824Z,22.08
2022-11-10T07:57:58.303Z,28.20
2022-11-10T08:03:37.397Z,24.55
2022-11-10T08:09:16.790Z,22.23
2022-11-10T08:14:56.114Z,22.17
2022-11-10T08:20:35.226Z,21.85
2022-11-10T08:26:16.693Z,22.85
2022-11-10T08:31:56.416Z,31.73
2022-11-10T08:37:35.846Z,33.97
2022-11-10T08:43:16.182Z,29.35
2022-11-10T08:48:55.549Z,27.73
2022-11-10T08:54:34.726Z,27.40
2022-11-10T09:00:16.279Z,27.42
2022-11-10T09:05:58.724Z,29.35
2022-11-10T09:11:38.225Z,18.80
2022-11-10T09:17:17.514Z,38.65
2022-11-10T09:22:57.444Z,27.90
2022-11-10T09:28:36.771Z,32.72
2022-11-10T09:34:16.151Z,30.52
2022-11-10T09:39:57.648Z,28.73
2022-11-10T09:45:44.923Z,36.07
2022-11-10T09:51:27.803Z,31.38
2022-11-10T09:57:11.348Z,27.42
2022-11-10T10:02:56.233Z,36.97
2022-11-10T10:08:56.582Z,32.75
2022-11-10T10:14:52.511Z,42.47
2022-11-10T10:20:49.682Z,34.88
2022-11-10T10:26:36.614Z,30.50
2022-11-10T10:32:17.663Z,22.50
2022-11-10T10:37:58.293Z,27.90
2022-11-10T10:43:37.551Z,36.45
2022-11-10T10:49:29.976Z,32.47
2022-11-10T10:55:13.164Z,23.73
2022-11-10T11:00:58.323Z,35.67
2022-11-10T11:06:37.374Z,28.77
2022-11-10T11:12:20.478Z,28.13
2022-11-10T11:18:02.529Z,37.05
2022-11-10T11:23:58.690Z,35.85
2022-11-10T11:29:50.951Z,23.85
2022-11-10T11:35:44.451Z,21.38
2022-11-10T11:41:49.611Z,30.23
2022-11-10T11:47:46.778Z,33.25
2022-11-10T11:53:50.739Z,27.05
2022-11-10T11:59:46.438Z,32.05
2022-11-10T12:05:57.147Z,29.83
2022-11-10T12:12:00.644Z,31.52
2022-11-10T12:18:03.525Z,31.73
2022-11-10T12:24:10.172Z,32.55
2022-11-10T12:35:39.331Z,36.45
2022-11-10T12:41:21.263Z,46.15
2022-11-10T12:47:05.607Z,26.63
2022-11-10T12:52:53.444Z,37.95
2022-11-10T12:58:33.487Z,50.63
2022-11-10T13:04:18.033Z,38.22
2022-11-10T13:10:18.249Z,28.73
2022-11-10T13:15:58.490Z,25.73
2022-11-10T13:21:52.892Z,39.85
2022-11-10T13:27:35.528Z,32.55
2022-11-10T13:33:23.853Z,30.38
2022-11-10T13:39:24.152Z,36.67
2022-11-10T13:45:27.049Z,23.73
2022-11-10T13:51:25.940Z,26.45
2022-11-10T13:57:27.882Z,40.05
2022-11-10T14:03:27.881Z,35.03
2022-11-10T14:09:33.407Z,26.13
2022-11-10T14:15:17.495Z,28.92
2022-11-10T14:20:59.103Z,34.55
2022-11-10T14:26:48.211Z,28.75
2022-11-10T14:32:27.649Z,31.60
2022-11-10T14:38:20.667Z,38.38
2022-11-10T14:44:04.784Z,38.10
2022-11-10T14:49:43.942Z,26.40
2022-11-10T14:55:28.114Z,27.02
2022-11-10T15:01:23.351Z,24.13
2022-11-10T15:07:02.884Z,27.08
2022-11-10T15:12:42.393Z,18.48
2022-11-10T15:18:27.526Z,37.40
2022-11-10T15:24:07.308Z,24.40
2022-11-10T15:29:47.858Z,41.72
2022-11-10T15:35:31.768Z,25.95
2022-11-10T15:41:27.024Z,37.33
2022-11-10T15:52:50.610Z,25.23
2022-11-10T15:58:30.089Z,26.88
2022-11-10T16:04:10.417Z,29.85
2022-11-10T16:09:50.041Z,23.13
2022-11-10T16:15:29.493Z,38.42
2022-11-10T16:21:14.224Z,34.78
2022-11-10T16:26:53.631Z,28.87
2022-11-10T16:32:32.971Z,29.40
2022-11-10T16:38:32.000Z,22.00
2022-11-10T16:44:13.657Z,43.53
2022-11-10T16:49:52.791Z,38.40
2022-11-10T16:55:33.169Z,27.35
2022-11-10T17:01:21.287Z,31.65
2022-11-10T17:07:00.932Z,24.85
2022-11-10T17:12:40.549Z,48.15
2022-11-10T17:18:24.053Z,30.95
2022-11-10T17:24:04.716Z,27.40
2022-11-10T17:29:44.090Z,29.73
2022-11-10T17:35:24.309Z,22.52
2022-11-10T17:41:04.199Z,29.98
2022-11-10T17:46:43.751Z,41.15
2022-11-10T17:52:23.446Z,28.92
2022-11-10T17:58:02.990Z,26.33
2022-11-10T18:03:42.434Z,33.95
2022-11-10T18:09:21.747Z,25.65
2022-11-10T18:15:01.889Z,34.17
2022-11-10T18:20:41.620Z,35.42
2022-11-10T18:26:20.931Z,24.80
2022-11-10T18:32:00.278Z,30.95
2022-11-10T18:37:39.783Z,40.70
2022-11-10T18:43:20.014Z,21.50
2022-11-10T18:48:59.374Z,29.05
2022-11-10T18:54:38.761Z,23.83
2022-11-10T19:00:18.620Z,31.65
2022-11-10T19:05:59.308Z,20.98
2022-11-10T19:11:38.372Z,38.88
2022-11-10T19:17:19.632Z,38.13
2022-11-10T19:22:58.792Z,39.65
2022-11-10T19:28:38.539Z,39.17
2022-11-10T19:34:19.000Z,32.58
2022-11-10T19:39:58.364Z,26.17
2022-11-10T19:45:42.208Z,46.20
2022-11-10T19:51:22.685Z,36.58
2022-11-10T19:57:02.135Z,36.65
2022-11-10T20:02:45.385Z,45.97
2022-11-10T20:08:25.195Z,36.42
2022-11-10T20:14:05.656Z,33.50
2022-11-10T20:19:45.016Z,38.22
2022-11-10T20:25:24.588Z,50.03
2022-11-10T20:31:10.017Z,56.97
2022-11-10T20:42:28.432Z,58.22
2022-11-10T20:48:07.881Z,31.80
2022-11-10T20:53:48.248Z,33.25
2022-11-10T20:59:27.542Z,37.47
2022-11-10T21:05:06.958Z,54.97
2022-11-10T21:10:55.046Z,35.08
2022-11-10T21:16:34.270Z,43.40
2022-11-10T21:22:13.383Z,37.53
2022-11-10T21:27:52.833Z,38.50
2022-11-10T21:33:31.979Z,37.28
2022-11-10T21:39:11.486Z,46.78
2022-11-10T21:44:50.898Z,26.92
2022-11-10T21:50:30.226Z,51.55
2022-11-10T21:56:13.119Z,35.63
2022-11-10T22:01:52.383Z,44.45
2022-11-10T22:07:31.477Z,30.20
2022-11-10T22:13:38.614Z,47.75
2022-11-10T22:19:18.277Z,33.08
2022-11-10T22:24:57.639Z,21.23
2022-11-10T22:30:37.701Z,37.92
2022-11-10T22:36:17.155Z,38.90
2022-11-10T22:42:15.538Z,34.45
2022-11-10T22:48:14.050Z,39.00
2022-11-10T22:53:53.539Z,38.60
2022-11-10T22:59:32.670Z,36.08
2022-11-10T23:05:11.842Z,35.17
2022-11-10T23:11:04.958Z,49.70
2022-11-10T23:16:44.418Z,34.90
2022-11-10T23:22:23.402Z,45.85
2022-11-10T23:28:02.837Z,35.85
2022-11-10T23:33:43.393Z,36.63
2022-11-10T23:39:22.739Z,42.63
2022-11-10T23:45:01.936Z,42.85
2022-11-10T23:50:41.213Z,37.45
2022-11-10T23:56:20.198Z,35.13
